Upstream stations:
Downstream station:
SHEF ID: OSOK1 Oswego hwy 160
STATION TYPE:
PRECIP STAGE RIV-FLOW VOLTAGE BAT-LOAD
in ft cfs volt volt
Ccp-Rev Ccp-Rev Ccp-Rev Ccp-Rev Ccp-Rev
(US/Central)
04/05 00:00 0.00 12.33 2994 12.57 12.41
04/05 01:00 0.00 12.30 2963 12.57 12.41
04/05 02:00 0.00 12.31 2973 12.57 12.41
04/05 03:00 0.00 12.29 2952 12.57 12.41
04/05 04:00 0.00 12.30 2963 12.57 12.41
04/05 05:00 0.00 12.28 2942 12.57 12.41
04/05 06:00 0.00 12.28 2942 12.57 12.41
04/05 07:00 0.00 12.26 2921 12.57 12.41
04/05 08:00 0.00 12.30 2963 12.57 12.41
04/05 09:00 0.00 12.30 2963 12.65 12.41
04/05 10:00 0.00 12.25 2911 12.97 12.89
04/05 11:00 0.00 12.28 2942 13.92 12.97
04/05 12:00 0.00 12.26 2921 13.76 13.53
04/05 13:00 0.00 12.25 2911 13.44 12.65
04/05 14:00 0.00 12.26 2921 13.37 12.65
04/05 15:00 0.00 12.26 2921 13.44 12.73
04/05 16:00 0.00 12.25 2911 13.37 12.65
04/05 17:00 0.00 12.27 2932 13.68 12.57
04/05 18:00 0.00 12.30 2963 13.44 12.57
04/05 19:00 0.00 12.19 2849 12.65 12.57
04/05 20:00 0.00 12.22 2880 12.65 12.49
04/05 21:00 0.00 12.24 2901 12.65 12.49
04/05 22:00 0.00 12.29 2952 12.65 12.49
04/05 23:00 ---- ---- ---- ---- ----